This is the latest recevied weather packets stored in our database for station/object EA4IAJ-12. If no packets are shown the sender has not sent any weather packets the latest 10 day(s).
| Time | Temp. | Humidity | Pressure | Rain* | Wind** | Luminosity | Snow |
|---|---|---|---|---|---|---|---|
| 1777112099 | 26.11° C | 100% | 1051.6 hPa | - | - | - | - |
| 1777111198 | 28.89° C | 100% | 1064.3 hPa | - | - | - | - |
| 1777110310 | 23.89° C | 100% | 1042.2 hPa | - | - | - | - |
| 1777109410 | 29.44° C | 100% | 1067.4 hPa | - | - | - | - |
| 1777108509 | 27.22° C | 100% | 1059.3 hPa | - | - | - | - |
| 1777107609 | 25.56° C | 100% | 1051 hPa | - | - | - | - |
| 1777106708 | 23.89° C | 100% | 1045.1 hPa | - | - | - | - |
| 1777105808 | 22.22° C | 100% | 1037.5 hPa | - | - | - | - |
| 1777104907 | 22.22° C | 100% | 1038.1 hPa | - | - | - | - |
| 1777104006 | 19.44° C | 100% | 1025.9 hPa | - | - | - | - |
| 1777103106 | 17.78° C | 100% | 1017.5 hPa | - | - | - | - |
| 1777102205 | 17.22° C | 100% | 1016.2 hPa | - | - | - | - |
| 1777101304 | 16.67° C | 100% | 1013.5 hPa | - | - | - | - |
| 1777100404 | 16.11° C | 100% | 1011.4 hPa | - | - | - | - |
| 1777099503 | 16.11° C | 100% | 1011.8 hPa | - | - | - | - |
| 1777098603 | 15.56° C | 100% | 1009.4 hPa | - | - | - | - |
| 1777097702 | 15.56° C | 100% | 1007.7 hPa | - | - | - | - |
| 1777096802 | 15° C | 100% | 1006 hPa | - | - | - | - |
| 1777095901 | 14.44° C | 100% | 1004.4 hPa | - | - | - | - |
| 1777095001 | 14.44° C | 100% | 1003.7 hPa | - | - | - | - |
| 1777094100 | 14.44° C | 100% | 1003.5 hPa | - | - | - | - |
| 1777093199 | 14.44° C | 100% | 1003.5 hPa | - | - | - | - |
| 1777092299 | 14.44° C | 100% | 1003.6 hPa | - | - | - | - |
| 1777091398 | 14.44° C | 100% | 1003.4 hPa | - | - | - | - |
| 1777090498 | 15° C | 100% | 1004 hPa | - | - | - | - |
* Rain since midnight (hover to see other rain measurements)
** Current wind speed in m/s (hover to see current wind gust speed)